Ana Sayfa
METAR-TAF:

METAR-TAF

Havaalanları :

Soekarno-Hatta Uluslararası Havalimanı

Cakarta, Java, Endonezya

Enlem: 06-07S, Boylam: 106-39E, yükseklik: 8 m

Güncel hava durumu gözlemi

Rapor saat 02:00 UTC de 32 dakika önce yapıldı.
Rüzgar değişken yönden 3 kt
Sıcaklık 29°C
Nem 55%
Basınç 1013 hPa
Görüş mesafesi: 8000 m
2000 ft yükseklikte az bulutlu

METAR: WIII 240200Z VRB03KT 8000 FEW020 29/19 Q1013 NOSIG

Saat: 09:32 (02:32 UTC)

Tahmin

Rapor saat 23:00 UTC de 3 saat ve 32 dakika önce yapıldı.
Ayın 24'si saat 00 UTC'den ayın 25'si saat 06 UTC'ye kadar geçerli Tahmin
Rüzgar doğu/kuzeydoğudan 10 kt
Görüş mesafesi: 9000 m
2000 ft yükseklikte az bulutlu

TAF: WIII 232300Z 2400/2506 07010KT 9000 FEW020

4.000'den fazla havaalanı için hava durumu gözlemleri ve tahminleri (METAR ve TAF raporları).

Kullanılabilir istasyonlar harita üzerinde sarı ve kırmızı noktalarla gösterilir.

İstasyonun adını görmek için fareyi noktanın üzerinde gezdirin.

Sonrasında hava gözlem ve tahminlerini görmek için tıklayın.

Haritayı değiştirmek için: yaklaştırmak için siyah artı işaretli yeşil düğmeye ve uzaklaştırmak için de eksi işaretli düğmeye hızla tıklayın; bitişik haritalar için yeşil okları kullanın.


METAR-TAF: